TNCMTAPA

Guest
Details From TNCM - St Maarten - Princess Juliana Intl
To TAPA - Antigua - V C Bird Intl
Flight Number -
Tags decoded
Created
Modified
Stats Distance 99 nm / 183 km
Max Altitude 0 ft / 0 m
Waypoints 7
Social Downloads 10
Likes 0
Share VATSIM

Download

Looking for another format? Having issues loading an existing format? Contact us
Advertisement - Login to hide

Notes

Requested: TNCM TFFJ ELOPO ANU27 ANU08 ANU04 TAPA

Route

TNCM TFFJ ELOPO ANU27 ANU08 ANU04 TAPA

ID Type Via Altitude Latitude Longitude Leg Dist Tot Dist Heading (true) Name
O TNCM APT - 0 ft / 0 m 18.04089˚ -63.10897˚ - 0 nm - St Maarten - Princess Juliana Intl
TFFJ APT - 0 ft / 0 m 17.90441˚ -62.84366˚ 17 nm 17 nm 118° / 118° St Barthelemy Is.
ELOPO FIX - 0 ft / 0 m 17.65006˚ -62.55439˚ 22 nm 39 nm 133° / 133° -
ANU27 FIX - 0 ft / 0 m 17.08743˚ -62.00527˚ 46 nm 85 nm 137° / 137° -
ANU08 FIX - 0 ft / 0 m 17.07783˚ -61.93020˚ 4 nm 90 nm 98° / 98° -
ANU04 FIX - 0 ft / 0 m 17.10186˚ -61.86519˚ 4 nm 94 nm 69° / 69° -
O TAPA APT - 0 ft / 0 m 17.13674˚ -61.79266˚ 4 nm 98 nm 63° / 63° Antigua - V C Bird Intl

Altitude Profile

Advertisement - Login to hide

TNCM

Details ICAO TNCM (SXM)
Name St Maarten - Princess Juliana Intl
Region Caribbean Netherlands, Aruba, Curaçao, Sint Maarten
Timezone Unknown (UTC+0.0)
Stats Elevation 12 ft / 4 m (AMSL)
Location 18.040889° -63.108974°
Runways 1
Magnetic Variation 14.339° W

METAR

TNCM 212300Z 08007KT 050V130 9999 SCT019 27/21 Q1017 NOSIG RMK A3005

Decode

TAF

TAF TNCM 211740Z 2118/2218 10015KT P6SM SCT020 SCT060 FM212300 10008KT P6SM SCT018 FM220600 10010KT P6SM SCT018 SCT020 SCT025 FM221200 10015KT P6SM -SHRA VCTS SCT020CB BKN030

Decode

Departure Runways

ID Width Length Bearing (true) Bearing (mag) Surface Threshold Offset Overrun Length
10 148 ft / 45 m 7,464 ft / 2,275 m 81.43° 95.77° Asphalt 0 ft / 0 m 151 ft / 46 m
28 148 ft / 45 m 7,464 ft / 2,275 m 261.44° 275.78° Asphalt 397 ft / 121 m 0 ft / 0 m

TAPA

Details ICAO TAPA (ANU)
Name Antigua - V C Bird Intl
Region Antigua and Barbuda
Timezone America/Antigua (UTC-4.0)
Stats Elevation 62 ft / 19 m (AMSL)
Location 17.136737° -61.792662°
Runways 1
Magnetic Variation 14.778° W

METAR

TAPA 212300Z 10010KT 9999 FEW018 BKN038 27/22 Q1017 NOSIG

Decode

TAF

TAF TAPA 211100Z 2112/2212 11012KT 9999 SCT022 PROB30 TEMPO 2115/2221 SHRA PROB40 TEMPO 2106/2212 SHRA

Decode

Destination Runways

ID Width Length Bearing (true) Bearing (mag) Surface Threshold Offset Overrun Length
07 148 ft / 45 m 9,022 ft / 2,750 m 58.28° 73.06° Asphalt 656 ft / 200 m 0 ft / 0 m
25 148 ft / 45 m 9,022 ft / 2,750 m 238.29° 253.07° Asphalt 0 ft / 0 m 0 ft / 0 m

Popular Alternatives